»·PEaware :: DAL2820 KMCO-KATL

DAL2820 :: KMCO-KATL

FLIGHT INFORMATION

Flight Status: Arrived
Operator:
Delta Air Lines
More flights by this operator :: More flights under this callsign
Pilot: Andre C. (24931)
Aircraft: BOEING 737-900
(B739)
More flights by this aircraft type
Origin: KMCO Orlando Intl
United States
Destination: KATL Hartsfield-Jackson Atlanta
United States
More flights between these airports :: More routes between these airports
Route: JAG6 MATEO SHRKS LAIRI LARZZ JJEDI2
File this flight plan on PilotEdge
Remarks: RMK / SIMBRIEF
Altitude:
(Current/Filed)
34,000ft
Speed:
(Current/Filed)
455kts
Departed: 10-Jun-19 01:44 PM
Arrived: 10-Jun-19 02:45 PM
Distance/Time
Traveled:
351nm/1:01
Distance/Time
To Go:
Arrived

Flight Plot

Page will automatically refresh every two minutes.

Flight plan parsing failed; only flown route is shown


Map Options




Map Legend


Flown Route
Filed Route
Departure Airport
Arrival Airport
Navaid (VOR, NDB)
Fix

Horizontal Profiles

Position Reports

Time Latitude Longitude Heading Altitude Ground
Speed
10-Jun-19 13:13 28.426690 -81.303545 34 86ft 0kts
10-Jun-19 13:14 28.426690 -81.303545 34 86ft 0kts
10-Jun-19 13:15 28.426690 -81.303545 34 86ft 0kts
10-Jun-19 13:16 28.426690 -81.303545 34 86ft 0kts
10-Jun-19 13:17 28.426690 -81.303545 34 86ft 0kts
10-Jun-19 13:18 28.426690 -81.303545 34 86ft 0kts
10-Jun-19 13:19 28.426690 -81.303545 34 86ft 0kts
10-Jun-19 13:20 28.426690 -81.303545 34 86ft 0kts
10-Jun-19 13:21 28.426690 -81.303545 34 86ft 0kts
10-Jun-19 13:22 28.426690 -81.303545 34 86ft 0kts
10-Jun-19 13:23 28.426690 -81.303545 34 86ft 0kts
10-Jun-19 13:24 28.426690 -81.303545 34 86ft 0kts
10-Jun-19 13:25 28.426690 -81.303545 34 86ft 0kts
10-Jun-19 13:26 28.426690 -81.303545 34 86ft 0kts
10-Jun-19 13:27 28.426690 -81.303545 34 86ft 0kts
10-Jun-19 13:28 28.426683 -81.303550 34 86ft 1kts
10-Jun-19 13:29 28.426377 -81.304012 89 86ft 2kts
10-Jun-19 13:30 28.426700 -81.304494 168 86ft 0kts
10-Jun-19 13:31 28.426766 -81.304505 172 86ft 0kts
10-Jun-19 13:32 28.426766 -81.304505 172 86ft 0kts
10-Jun-19 13:33 28.426148 -81.304178 143 86ft 6kts
10-Jun-19 13:34 28.424645 -81.301534 120 87ft 13kts
10-Jun-19 13:35 28.427398 -81.298823 0 87ft 21kts
10-Jun-19 13:36 28.431931 -81.298024 0 89ft 17kts
10-Jun-19 13:37 28.437937 -81.298445 321 89ft 25kts
10-Jun-19 13:38 28.439410 -81.306985 274 87ft 31kts
10-Jun-19 13:39 28.439280 -81.315630 266 89ft 23kts
10-Jun-19 13:40 28.441366 -81.320057 359 90ft 15kts
10-Jun-19 13:41 28.445231 -81.320113 359 92ft 19kts
10-Jun-19 13:42 28.448198 -81.323981 271 89ft 19kts
10-Jun-19 13:43 28.443641 -81.326987 179 92ft 73kts
10-Jun-19 13:44 28.403702 -81.326365 179 1266ft 159kts
10-Jun-19 13:45 28.391089 -81.280520 35 2462ft 252kts
10-Jun-19 13:46 28.454473 -81.280382 349 6192ft 218kts
10-Jun-19 13:47 28.520419 -81.291542 349 7807ft 270kts
10-Jun-19 13:48 28.600619 -81.305081 348 10052ft 300kts
10-Jun-19 13:49 28.689827 -81.320149 348 11985ft 338kts
10-Jun-19 13:50 28.784052 -81.335969 348 14442ft 351kts
10-Jun-19 13:51 28.882617 -81.352495 349 16691ft 365kts
10-Jun-19 13:52 28.984738 -81.369569 349 18772ft 378kts
10-Jun-19 13:53 29.090578 -81.387136 350 20773ft 388kts
10-Jun-19 13:54 29.199660 -81.398852 354 22563ft 399kts
10-Jun-19 13:55 29.311376 -81.409549 354 24203ft 408kts
10-Jun-19 13:56 29.425719 -81.420605 354 25708ft 417kts
10-Jun-19 13:57 29.542866 -81.431986 354 27103ft 426kts
10-Jun-19 13:58 29.661804 -81.443578 354 28404ft 433kts
10-Jun-19 13:59 29.782592 -81.459010 344 29609ft 439kts
10-Jun-19 14:00 29.900292 -81.501143 341 30704ft 446kts
10-Jun-19 14:01 30.018926 -81.544524 341 31926ft 448kts
10-Jun-19 14:02 30.137209 -81.587798 341 33167ft 445kts
10-Jun-19 14:03 30.255563 -81.631172 341 34022ft 450kts
10-Jun-19 14:04 30.374997 -81.675024 341 34026ft 458kts
10-Jun-19 14:05 30.496479 -81.719709 341 34027ft 458kts
10-Jun-19 14:06 30.618072 -81.764738 339 34027ft 458kts
10-Jun-19 14:07 30.732421 -81.828664 332 34028ft 457kts
10-Jun-19 14:08 30.845998 -81.894701 332 34026ft 457kts
10-Jun-19 14:09 30.959748 -81.960909 331 34019ft 453kts
10-Jun-19 14:10 31.071107 -82.025853 331 34014ft 446kts
10-Jun-19 14:11 31.181282 -82.090312 331 34007ft 465kts
10-Jun-19 14:12 31.296594 -82.157894 331 34011ft 463kts
10-Jun-19 14:13 31.411977 -82.225703 331 34013ft 463kts
10-Jun-19 14:14 31.527125 -82.293559 331 34017ft 463kts
10-Jun-19 14:15 31.642053 -82.361467 331 34002ft 463kts
10-Jun-19 14:16 31.757201 -82.429681 331 33996ft 463kts
10-Jun-19 14:17 31.872441 -82.498126 331 33985ft 463kts
10-Jun-19 14:18 31.984470 -82.571887 319 33990ft 460kts
10-Jun-19 14:19 32.080732 -82.670666 316 33993ft 459kts
10-Jun-19 14:20 32.176916 -82.769236 316 33988ft 459kts
10-Jun-19 14:21 32.273339 -82.868250 316 33990ft 457kts
10-Jun-19 14:22 32.368885 -82.966602 317 31316ft 450kts
10-Jun-19 14:24 32.461503 -83.062020 317 28829ft 434kts
10-Jun-19 14:25 32.550640 -83.154059 317 26431ft 418kts
10-Jun-19 14:26 32.636286 -83.242820 317 24169ft 402kts
10-Jun-19 14:27 32.719044 -83.328639 318 21976ft 403kts
10-Jun-19 14:28 32.807278 -83.419430 318 19653ft 435kts
10-Jun-19 14:29 32.896170 -83.512568 318 17346ft 411kts
10-Jun-19 14:30 32.979207 -83.599870 318 15235ft 385kts
10-Jun-19 14:31 33.056518 -83.681174 318 13290ft 363kts
10-Jun-19 14:32 33.128920 -83.757492 318 11632ft 340kts
10-Jun-19 14:33 33.197826 -83.830609 316 10096ft 320kts
10-Jun-19 14:34 33.263082 -83.896244 325 9058ft 292kts
10-Jun-19 14:35 33.327587 -83.949647 325 8131ft 269kts
10-Jun-19 14:36 33.388382 -84.000023 324 7329ft 264kts
10-Jun-19 14:37 33.446324 -84.048082 324 6555ft 261kts
10-Jun-19 14:38 33.505755 -84.097413 325 5754ft 259kts
10-Jun-19 14:39 33.564606 -84.146270 325 5225ft 258kts
10-Jun-19 14:40 33.622037 -84.197073 306 4553ft 250kts
10-Jun-19 14:41 33.634668 -84.271843 270 3598ft 223kts
10-Jun-19 14:42 33.634451 -84.341580 270 2073ft 191kts
10-Jun-19 14:43 33.634671 -84.394124 272 1180ft 157kts
10-Jun-19 14:43 33.634708 -84.429876 270 1007ft 61kts
10-Jun-19 14:45 33.636016 -84.440449 341 1019ft 18kts
10-Jun-19 14:45 33.637560 -84.439651 78 1017ft 0kts
10-Jun-19 14:46 33.637560 -84.439651 78 1017ft 0kts

Navigation Log

Ident Type
Flight plan parsing failed, navigation log unavailable